createdAt,value
2023-04-30T00:01:49.969Z,100798.85
2023-04-30T00:04:18.448Z,100800.07
2023-04-30T00:06:46.728Z,100800.41
2023-04-30T00:09:14.972Z,100801.48
2023-04-30T00:11:43.143Z,100799.27
2023-04-30T00:14:11.521Z,100801.05
2023-04-30T00:16:39.727Z,100801.61
2023-04-30T00:19:08.677Z,100805.32
2023-04-30T00:21:36.862Z,100804.54
2023-04-30T00:24:06.034Z,100808.05
2023-04-30T00:26:34.125Z,100805.40
2023-04-30T00:29:02.913Z,100805.89
2023-04-30T00:31:31.153Z,100808.29
2023-04-30T00:33:59.566Z,100810.31
2023-04-30T00:36:27.743Z,100810.98
2023-04-30T00:38:55.910Z,100807.45
2023-04-30T00:41:24.696Z,100808.81
2023-04-30T00:43:52.763Z,100809.14
2023-04-30T00:46:21.034Z,100811.39
2023-04-30T00:48:49.414Z,100812.58
2023-04-30T00:51:17.892Z,100813.06
2023-04-30T00:53:46.378Z,100816.52
2023-04-30T00:56:16.670Z,100814.61
2023-04-30T00:58:45.890Z,100818.60
2023-04-30T01:01:14.108Z,100818.96
2023-04-30T01:03:42.893Z,100823.15
2023-04-30T01:06:11.047Z,100824.72
2023-04-30T01:08:39.325Z,100828.40
2023-04-30T01:11:26.923Z,100828.74
2023-04-30T01:14:11.994Z,100832.81
2023-04-30T01:17:06.476Z,100828.86
2023-04-30T01:19:45.962Z,100832.59
2023-04-30T01:22:31.190Z,100827.60
2023-04-30T01:25:15.949Z,100829.80
2023-04-30T01:28:06.757Z,100832.22
2023-04-30T01:30:36.152Z,100833.48
2023-04-30T01:33:04.634Z,100840.66
2023-04-30T01:35:40.281Z,100847.48
2023-04-30T01:38:20.226Z,100854.05
2023-04-30T01:40:53.736Z,100857.17
2023-04-30T01:43:37.074Z,100858.36
2023-04-30T01:46:23.179Z,100862.35
2023-04-30T01:49:16.615Z,100863.27
2023-04-30T01:51:47.370Z,100866.98
2023-04-30T01:54:37.019Z,100869.14
2023-04-30T01:57:24.649Z,100873.29
2023-04-30T01:59:53.718Z,100873.93
2023-04-30T02:02:22.135Z,100878.05
2023-04-30T02:04:50.701Z,100878.53
2023-04-30T02:07:29.315Z,100881.45
2023-04-30T02:09:57.493Z,100884.05
2023-04-30T02:12:25.770Z,100884.35
2023-04-30T02:14:53.936Z,100885.54
2023-04-30T02:17:22.112Z,100885.67
2023-04-30T02:19:50.896Z,100889.00
2023-04-30T02:22:19.062Z,100891.45
2023-04-30T02:24:47.236Z,100890.59
2023-04-30T02:27:15.305Z,100895.11
2023-04-30T02:29:43.481Z,100898.05
2023-04-30T02:32:11.858Z,100894.96
2023-04-30T02:34:39.923Z,100898.60
2023-04-30T02:37:08.812Z,100897.73
2023-04-30T02:39:37.150Z,100901.38
2023-04-30T02:42:07.001Z,100901.39
2023-04-30T02:44:35.490Z,100903.33
2023-04-30T02:47:03.754Z,100907.71
2023-04-30T02:49:32.753Z,100908.61
2023-04-30T02:52:01.329Z,100910.73
2023-04-30T02:54:29.499Z,100921.01
2023-04-30T02:56:57.668Z,100929.55
2023-04-30T02:59:26.152Z,100934.08
2023-04-30T03:01:54.323Z,100937.21
2023-04-30T03:04:23.028Z,100941.08
2023-04-30T03:06:51.208Z,100942.86
2023-04-30T03:09:19.364Z,100943.75
2023-04-30T03:11:47.535Z,100946.20
2023-04-30T03:14:15.797Z,100944.33
2023-04-30T03:16:44.017Z,100944.36
2023-04-30T03:19:13.575Z,100944.58
2023-04-30T03:21:42.060Z,100945.98
2023-04-30T03:24:10.237Z,100946.70
2023-04-30T03:26:38.412Z,100950.38
2023-04-30T03:29:06.579Z,100950.44
2023-04-30T03:31:34.721Z,100953.77
2023-04-30T03:34:02.922Z,100960.04
2023-04-30T03:36:31.504Z,100960.56
2023-04-30T03:38:59.674Z,100962.84
2023-04-30T03:41:27.954Z,100968.25
2023-04-30T03:43:56.140Z,100970.18
2023-04-30T03:46:24.454Z,100967.42
2023-04-30T03:48:52.671Z,100972.31
2023-04-30T03:51:21.971Z,100978.56
2023-04-30T03:53:50.249Z,100979.81
2023-04-30T03:56:18.427Z,100982.95
2023-04-30T03:58:46.592Z,100986.77
2023-04-30T04:01:14.765Z,100990.25
2023-04-30T04:03:43.212Z,100994.41
2023-04-30T04:06:11.587Z,100990.59
2023-04-30T04:08:43.413Z,100994.58
2023-04-30T04:11:12.501Z,100998.03
2023-04-30T04:13:41.258Z,101002.70
2023-04-30T04:16:10.018Z,101006.50
2023-04-30T04:18:38.326Z,101011.17
2023-04-30T04:21:06.903Z,101014.45
2023-04-30T04:23:35.693Z,101017.04
2023-04-30T04:26:03.761Z,101019.44
2023-04-30T04:28:32.137Z,101020.65
2023-04-30T04:31:00.626Z,101020.64
2023-04-30T04:33:29.404Z,101021.66
2023-04-30T04:35:58.299Z,101027.87
2023-04-30T04:38:26.671Z,101025.41
2023-04-30T04:40:56.783Z,101032.66
2023-04-30T04:43:25.164Z,101032.45
2023-04-30T04:45:53.388Z,101031.55
2023-04-30T04:48:21.918Z,101032.23
2023-04-30T04:50:49.982Z,101035.86
2023-04-30T04:53:18.050Z,101038.97
2023-04-30T04:55:46.221Z,101042.25
2023-04-30T04:58:14.396Z,101048.83
2023-04-30T05:00:42.592Z,101050.36
2023-04-30T05:03:11.290Z,101053.27
2023-04-30T05:05:39.526Z,101057.76
2023-04-30T05:08:07.600Z,101062.58
2023-04-30T05:10:35.683Z,101068.60
2023-04-30T05:13:04.153Z,101076.71
2023-04-30T05:15:32.213Z,101082.41
2023-04-30T05:18:00.424Z,101084.11
2023-04-30T05:20:28.772Z,101091.89
2023-04-30T05:22:56.838Z,101094.11
2023-04-30T05:25:24.905Z,101098.93
2023-04-30T05:27:53.092Z,101101.52
2023-04-30T05:30:21.252Z,101106.34
2023-04-30T05:32:52.361Z,101108.23
2023-04-30T05:35:20.647Z,101105.91
2023-04-30T05:37:49.076Z,101106.38
2023-04-30T05:40:17.421Z,101112.92
2023-04-30T05:42:45.528Z,101114.13
2023-04-30T05:45:16.119Z,101116.68
2023-04-30T05:47:44.524Z,101118.37
2023-04-30T05:50:13.080Z,101115.03
2023-04-30T05:52:41.352Z,101118.45
2023-04-30T05:55:11.149Z,101119.82
2023-04-30T05:57:39.337Z,101118.21
2023-04-30T06:00:08.097Z,101120.42
2023-04-30T06:02:42.274Z,101121.05
2023-04-30T06:05:10.571Z,101127.59
2023-04-30T06:07:38.748Z,101130.66
2023-04-30T06:10:07.681Z,101129.20
2023-04-30T06:12:36.065Z,101128.61
2023-04-30T06:15:04.736Z,101130.29
2023-04-30T06:17:33.159Z,101127.61
2023-04-30T06:20:06.512Z,101123.73
2023-04-30T06:22:34.751Z,101127.66
2023-04-30T06:25:03.775Z,101126.88
2023-04-30T06:27:32.650Z,101135.88
2023-04-30T06:30:01.264Z,101133.89
2023-04-30T06:32:29.440Z,101136.44
2023-04-30T06:34:57.898Z,101139.52
2023-04-30T06:37:26.070Z,101144.36
2023-04-30T06:39:54.382Z,101146.04
2023-04-30T06:42:22.518Z,101151.55
2023-04-30T06:44:50.689Z,101147.63
2023-04-30T06:47:18.764Z,101146.84
2023-04-30T06:49:47.147Z,101150.72
2023-04-30T06:52:15.309Z,101152.20
2023-04-30T06:54:44.401Z,101156.32
2023-04-30T06:57:12.576Z,101152.91
2023-04-30T06:59:40.768Z,101154.70
2023-04-30T07:02:08.858Z,101151.64
2023-04-30T07:04:36.991Z,101152.77
2023-04-30T07:07:05.472Z,101150.79
2023-04-30T07:09:33.539Z,101146.55
2023-04-30T07:12:01.938Z,101150.41
2023-04-30T07:14:29.981Z,101153.95
2023-04-30T07:16:58.153Z,101155.27
2023-04-30T07:19:27.264Z,101154.73
2023-04-30T07:21:55.429Z,101150.78
2023-04-30T07:24:23.601Z,101148.81
2023-04-30T07:26:51.874Z,101150.63
2023-04-30T07:29:20.075Z,101150.85
2023-04-30T07:31:48.351Z,101144.83
2023-04-30T07:34:16.489Z,101143.66
2023-04-30T07:36:44.658Z,101149.59
2023-04-30T07:39:12.933Z,101148.20
2023-04-30T07:41:41.110Z,101149.61
2023-04-30T07:44:09.282Z,101157.63
2023-04-30T07:46:37.396Z,101155.48
2023-04-30T07:49:05.934Z,101158.15
2023-04-30T07:51:34.235Z,101154.50
2023-04-30T07:54:02.382Z,101156.23
2023-04-30T07:56:30.767Z,101162.58
2023-04-30T07:58:59.010Z,101158.48
2023-04-30T08:01:27.315Z,101165.55
2023-04-30T08:03:55.703Z,101168.02
2023-04-30T08:06:24.493Z,101165.36
2023-04-30T08:08:52.647Z,101170.80
2023-04-30T08:11:20.816Z,101172.81
2023-04-30T08:13:48.989Z,101173.23
2023-04-30T08:16:17.349Z,101175.08
2023-04-30T08:18:46.796Z,101177.56
2023-04-30T08:21:15.142Z,101177.78
2023-04-30T08:23:43.215Z,101179.36
2023-04-30T08:26:11.384Z,101176.61
2023-04-30T08:28:39.982Z,101177.06
2023-04-30T08:31:08.667Z,101175.33
2023-04-30T08:33:36.728Z,101178.70
2023-04-30T08:36:05.510Z,101180.79
2023-04-30T08:38:33.578Z,101182.00
2023-04-30T08:41:16.087Z,101185.45
2023-04-30T08:43:45.177Z,101184.27
2023-04-30T08:46:17.330Z,101185.59
2023-04-30T08:48:46.131Z,101187.41
2023-04-30T08:51:14.616Z,101184.67
2023-04-30T08:53:43.404Z,101191.16
2023-04-30T08:56:11.786Z,101196.11
2023-04-30T08:58:41.072Z,101191.08
2023-04-30T09:01:10.236Z,101192.16
2023-04-30T09:03:38.649Z,101195.26
2023-04-30T09:06:06.867Z,101194.14
2023-04-30T09:08:49.636Z,101196.39
2023-04-30T09:11:29.070Z,101194.43
2023-04-30T09:14:01.744Z,101194.60
2023-04-30T09:16:45.905Z,101196.19
2023-04-30T09:19:24.532Z,101192.55
2023-04-30T09:21:52.886Z,101192.61
2023-04-30T09:24:21.054Z,101191.42
2023-04-30T09:26:49.640Z,101191.81
2023-04-30T09:29:17.812Z,101191.51
2023-04-30T09:31:47.772Z,101188.98
2023-04-30T09:34:16.207Z,101190.39
2023-04-30T09:36:57.152Z,101191.97
2023-04-30T09:39:25.247Z,101188.59
2023-04-30T09:41:53.623Z,101188.65
2023-04-30T09:44:32.935Z,101180.04
2023-04-30T09:47:01.253Z,101181.34
2023-04-30T09:49:29.614Z,101187.91
2023-04-30T09:52:01.696Z,101188.48
2023-04-30T09:54:31.277Z,101183.86
2023-04-30T09:57:02.021Z,101182.77
2023-04-30T09:59:33.158Z,101185.65
2023-04-30T10:02:02.969Z,101184.41
2023-04-30T10:04:35.342Z,101179.27
2023-04-30T10:07:12.518Z,101180.45
2023-04-30T10:09:58.225Z,101178.60
2023-04-30T10:12:30.777Z,101177.22
2023-04-30T10:15:23.429Z,101172.27
2023-04-30T10:18:05.458Z,101170.77
2023-04-30T10:20:37.257Z,101160.02
2023-04-30T10:23:05.967Z,101161.74
2023-04-30T10:25:34.338Z,101156.05
2023-04-30T10:28:04.626Z,101161.06
2023-04-30T10:30:35.193Z,101160.08
2023-04-30T10:33:16.801Z,101155.42
2023-04-30T10:35:50.169Z,101153.54
2023-04-30T10:38:29.985Z,101146.09
2023-04-30T10:41:02.385Z,101147.80
2023-04-30T10:43:31.683Z,101146.95
2023-04-30T10:46:00.429Z,101149.98
2023-04-30T10:48:31.302Z,101144.30
2023-04-30T10:50:59.942Z,101139.92
2023-04-30T10:53:31.565Z,101140.92
2023-04-30T10:56:09.661Z,101143.10
2023-04-30T10:58:39.721Z,101140.48
2023-04-30T11:01:15.951Z,101137.77
2023-04-30T11:04:11.243Z,101145.56
2023-04-30T11:06:56.102Z,101143.73
2023-04-30T11:09:39.433Z,101140.57
2023-04-30T11:12:22.244Z,101138.15
2023-04-30T11:14:50.591Z,101137.19
2023-04-30T11:17:23.723Z,101136.35
2023-04-30T11:19:53.926Z,101134.41
2023-04-30T11:22:26.807Z,101130.27
2023-04-30T11:25:03.944Z,101133.35
2023-04-30T11:27:36.681Z,101131.90
2023-04-30T11:30:10.973Z,101132.50
2023-04-30T11:32:40.600Z,101131.52
2023-04-30T11:35:09.254Z,101126.53
2023-04-30T11:37:44.115Z,101131.08
2023-04-30T11:40:14.023Z,101134.63
2023-04-30T11:42:47.135Z,101132.32
2023-04-30T11:45:21.128Z,101131.10
2023-04-30T11:47:55.372Z,101134.61
2023-04-30T11:50:29.816Z,101126.77
2023-04-30T11:52:59.368Z,101126.64
2023-04-30T11:55:28.158Z,101126.48
2023-04-30T11:57:59.588Z,101126.92
2023-04-30T12:00:29.640Z,101125.09
2023-04-30T12:03:00.596Z,101122.20
2023-04-30T12:05:29.126Z,101122.64
2023-04-30T12:08:00.392Z,101122.90
2023-04-30T12:10:28.545Z,101124.39
2023-04-30T12:12:56.715Z,101126.91
2023-04-30T12:15:29.325Z,101124.27
2023-04-30T12:17:58.998Z,101121.15
2023-04-30T12:20:29.636Z,101125.16
2023-04-30T12:22:58.870Z,101124.69
2023-04-30T12:25:30.065Z,101118.38
2023-04-30T12:27:59.836Z,101117.20
2023-04-30T12:30:28.174Z,101113.51
2023-04-30T12:33:00.618Z,101115.45
2023-04-30T12:35:31.540Z,101114.33
2023-04-30T12:38:05.466Z,101110.93
2023-04-30T12:40:33.948Z,101105.73
2023-04-30T12:43:04.394Z,101106.05
2023-04-30T12:45:53.041Z,101105.42
2023-04-30T12:48:24.634Z,101107.62
2023-04-30T12:50:52.961Z,101108.27
2023-04-30T12:53:22.143Z,101106.03
2023-04-30T12:56:15.604Z,101109.98
2023-04-30T12:58:47.590Z,101112.80
2023-04-30T13:01:24.066Z,101105.98
2023-04-30T13:03:53.946Z,101099.34
2023-04-30T13:06:23.594Z,101101.53
2023-04-30T13:08:58.538Z,101097.02
2023-04-30T13:11:27.890Z,101098.52
2023-04-30T13:13:56.316Z,101103.77
2023-04-30T13:16:25.296Z,101097.85
2023-04-30T13:18:55.131Z,101091.79
2023-04-30T13:21:25.136Z,101089.80
2023-04-30T13:23:54.929Z,101090.95
2023-04-30T13:26:24.100Z,101093.04
2023-04-30T13:28:52.577Z,101091.46
2023-04-30T13:31:20.863Z,101093.98
2023-04-30T13:33:49.643Z,101097.36
2023-04-30T13:36:17.906Z,101090.10
2023-04-30T13:38:46.078Z,101089.61
2023-04-30T13:41:14.515Z,101090.25
2023-04-30T13:43:43.857Z,101091.95
2023-04-30T13:46:12.166Z,101089.45
2023-04-30T13:48:40.306Z,101090.84
2023-04-30T13:51:08.583Z,101090.13
2023-04-30T13:53:37.550Z,101086.77
2023-04-30T13:56:07.064Z,101088.86
2023-04-30T13:58:35.253Z,101087.04
2023-04-30T14:01:03.793Z,101085.59
2023-04-30T14:03:32.218Z,101082.23
2023-04-30T14:06:00.932Z,101080.29
2023-04-30T14:08:30.604Z,101081.02
2023-04-30T14:10:58.995Z,101078.94
2023-04-30T14:13:27.146Z,101076.46
2023-04-30T14:15:56.363Z,101071.84
2023-04-30T14:18:24.620Z,101073.28
2023-04-30T14:20:52.789Z,101073.85
2023-04-30T14:23:20.963Z,101074.64
2023-04-30T14:25:49.243Z,101070.23
2023-04-30T14:28:17.408Z,101072.65
2023-04-30T14:30:45.792Z,101067.73
2023-04-30T14:33:14.917Z,101070.30
2023-04-30T14:35:43.163Z,101067.46
2023-04-30T14:38:11.326Z,101070.52
2023-04-30T14:40:39.400Z,101065.23
2023-04-30T14:43:07.632Z,101069.33
2023-04-30T14:45:35.963Z,101069.35
2023-04-30T14:48:05.666Z,101070.64
2023-04-30T14:50:34.033Z,101068.56
2023-04-30T14:53:03.946Z,101066.29
2023-04-30T14:55:32.833Z,101067.80
2023-04-30T14:58:01.223Z,101065.98
2023-04-30T15:00:29.611Z,101062.20
2023-04-30T15:02:58.023Z,101067.20
2023-04-30T15:05:26.967Z,101065.42
2023-04-30T15:07:55.238Z,101062.66
2023-04-30T15:10:23.421Z,101060.61
2023-04-30T15:12:51.679Z,101059.23
2023-04-30T15:15:21.488Z,101058.12
2023-04-30T15:17:49.695Z,101059.25
2023-04-30T15:20:18.040Z,101055.94
2023-04-30T15:22:46.219Z,101062.39
2023-04-30T15:25:14.494Z,101058.89
2023-04-30T15:27:42.665Z,101056.63
2023-04-30T15:30:11.463Z,101059.40
2023-04-30T15:32:40.474Z,101055.56
2023-04-30T15:35:09.548Z,101055.09
2023-04-30T15:37:37.705Z,101052.20
2023-04-30T15:40:07.096Z,101054.07
2023-04-30T15:42:35.189Z,101050.98
2023-04-30T15:45:04.472Z,101054.59
2023-04-30T15:47:32.773Z,101049.20
2023-04-30T15:50:01.372Z,101050.45
2023-04-30T15:52:29.502Z,101044.84
2023-04-30T15:54:57.882Z,101045.64
2023-04-30T15:57:26.052Z,101054.08
2023-04-30T15:59:55.035Z,101055.09
2023-04-30T16:02:23.439Z,101050.15
2023-04-30T16:04:51.797Z,101054.38
2023-04-30T16:07:19.875Z,101053.19
2023-04-30T16:09:49.265Z,101054.54
2023-04-30T16:12:17.446Z,101049.56
2023-04-30T16:14:45.623Z,101048.91
2023-04-30T16:17:13.786Z,101049.69
2023-04-30T16:19:42.168Z,101050.59
2023-04-30T16:22:10.336Z,101052.95
2023-04-30T16:24:38.406Z,101052.52
2023-04-30T16:27:07.504Z,101049.00
2023-04-30T16:29:35.676Z,101046.96
2023-04-30T16:32:03.911Z,101043.84
2023-04-30T16:34:32.123Z,101049.10
2023-04-30T16:37:00.564Z,101055.55
2023-04-30T16:39:28.765Z,101053.70
2023-04-30T16:41:56.838Z,101049.60
2023-04-30T16:44:25.113Z,101043.27
2023-04-30T16:46:53.283Z,101045.29
2023-04-30T16:49:22.686Z,101046.60
2023-04-30T16:51:51.470Z,101041.97
2023-04-30T16:54:19.542Z,101049.28
2023-04-30T16:56:47.611Z,101048.14
2023-04-30T16:59:15.885Z,101047.98
2023-04-30T17:01:44.042Z,101048.11
2023-04-30T17:04:12.639Z,101049.33
2023-04-30T17:06:40.848Z,101050.37
2023-04-30T17:09:08.985Z,101052.48
2023-04-30T17:11:37.362Z,101058.26
2023-04-30T17:14:05.437Z,101063.20
2023-04-30T17:16:33.702Z,101066.08
2023-04-30T17:19:01.975Z,101066.94
2023-04-30T17:21:30.365Z,101068.16
2023-04-30T17:23:58.834Z,101067.16
2023-04-30T17:26:27.336Z,101064.57
2023-04-30T17:28:55.796Z,101063.88
2023-04-30T17:31:24.549Z,101060.77
2023-04-30T17:33:52.963Z,101065.40
2023-04-30T17:36:21.231Z,101069.41
2023-04-30T17:38:49.303Z,101068.52
2023-04-30T17:41:18.804Z,101071.16
2023-04-30T17:43:46.984Z,101074.05
2023-04-30T17:46:15.116Z,101076.96
2023-04-30T17:48:43.256Z,101077.29
2023-04-30T17:51:11.501Z,101082.48
2023-04-30T17:53:40.831Z,101085.69
2023-04-30T17:56:09.900Z,101085.81
2023-04-30T17:58:39.827Z,101081.77
2023-04-30T18:01:08.900Z,101082.18
2023-04-30T18:03:37.109Z,101085.36
2023-04-30T18:06:05.432Z,101084.27
2023-04-30T18:08:33.729Z,101086.72
2023-04-30T18:11:04.772Z,101089.20
2023-04-30T18:13:33.038Z,101088.96
2023-04-30T18:16:01.352Z,101094.46
2023-04-30T18:18:29.600Z,101093.95
2023-04-30T18:20:57.795Z,101093.42
2023-04-30T18:23:26.142Z,101095.48
2023-04-30T18:25:54.203Z,101097.42
2023-04-30T18:28:22.389Z,101096.02
2023-04-30T18:30:50.685Z,101098.95
2023-04-30T18:33:19.029Z,101101.76
2023-04-30T18:35:50.589Z,101101.39
2023-04-30T18:38:18.974Z,101101.92
2023-04-30T18:40:47.133Z,101105.14
2023-04-30T18:43:16.952Z,101107.08
2023-04-30T18:45:45.114Z,101108.08
2023-04-30T18:48:15.435Z,101104.90
2023-04-30T18:50:43.536Z,101105.77
2023-04-30T18:53:12.495Z,101110.74
2023-04-30T18:55:41.485Z,101110.83
2023-04-30T18:58:09.680Z,101117.84
2023-04-30T19:00:37.842Z,101122.39
2023-04-30T19:03:06.119Z,101129.21
2023-04-30T19:05:36.015Z,101132.84
2023-04-30T19:08:04.207Z,101138.45
2023-04-30T19:10:34.111Z,101141.00
2023-04-30T19:13:02.694Z,101141.46
2023-04-30T19:15:30.961Z,101141.80
2023-04-30T19:17:59.183Z,101144.86
2023-04-30T19:20:27.417Z,101142.53
2023-04-30T19:22:55.715Z,101147.67
2023-04-30T19:25:23.859Z,101146.90
2023-04-30T19:27:52.027Z,101144.56
2023-04-30T19:30:20.196Z,101146.59
2023-04-30T19:32:48.484Z,101146.33
2023-04-30T19:35:16.754Z,101144.84
2023-04-30T19:37:45.320Z,101143.36
2023-04-30T19:40:14.812Z,101147.11
2023-04-30T19:42:42.910Z,101152.08
2023-04-30T19:45:11.692Z,101151.61
2023-04-30T19:47:39.903Z,101153.92
2023-04-30T19:50:08.964Z,101154.33
2023-04-30T19:52:37.232Z,101157.52
2023-04-30T19:55:06.118Z,101155.66
2023-04-30T19:57:36.122Z,101157.80
2023-04-30T20:00:04.718Z,101158.89
2023-04-30T20:02:35.188Z,101158.41
2023-04-30T20:05:06.923Z,101166.27
2023-04-30T20:07:35.993Z,101169.09
2023-04-30T20:10:04.649Z,101167.02
2023-04-30T20:12:32.749Z,101170.86
2023-04-30T20:15:01.239Z,101170.91
2023-04-30T20:17:29.494Z,101174.60
2023-04-30T20:19:58.209Z,101175.69
2023-04-30T20:22:27.693Z,101172.06
2023-04-30T20:24:56.577Z,101177.33
2023-04-30T20:27:25.889Z,101180.13
2023-04-30T20:29:54.555Z,101177.92
2023-04-30T20:32:22.994Z,101180.04
2023-04-30T20:34:52.339Z,101176.58
2023-04-30T20:37:20.432Z,101180.57
2023-04-30T20:39:48.583Z,101176.92
2023-04-30T20:42:17.060Z,101178.69
2023-04-30T20:44:45.131Z,101176.63
2023-04-30T20:47:14.565Z,101176.98
2023-04-30T20:49:43.744Z,101180.83
2023-04-30T20:52:15.700Z,101181.89
2023-04-30T20:54:44.076Z,101186.77
2023-04-30T20:57:12.140Z,101187.64
2023-04-30T20:59:40.211Z,101187.46
2023-04-30T21:02:09.208Z,101183.50
2023-04-30T21:04:37.475Z,101183.36
2023-04-30T21:07:05.852Z,101185.81
2023-04-30T21:09:35.977Z,101185.99
2023-04-30T21:12:05.546Z,101183.58
2023-04-30T21:14:34.365Z,101180.12
2023-04-30T21:17:02.770Z,101181.70
2023-04-30T21:19:31.739Z,101179.45
2023-04-30T21:22:00.219Z,101186.04
2023-04-30T21:24:31.263Z,101186.05
2023-04-30T21:27:00.526Z,101186.92
2023-04-30T21:29:28.831Z,101190.56
2023-04-30T21:31:57.207Z,101189.53
2023-04-30T21:34:25.480Z,101191.10
2023-04-30T21:36:53.650Z,101191.27
2023-04-30T21:39:21.826Z,101192.50
2023-04-30T21:41:50.405Z,101193.19
2023-04-30T21:44:19.910Z,101188.88
2023-04-30T21:46:48.290Z,101191.12
2023-04-30T21:49:17.083Z,101193.89
2023-04-30T21:51:45.451Z,101193.89
2023-04-30T21:54:13.618Z,101196.50
2023-04-30T21:56:41.693Z,101200.30
2023-04-30T21:59:09.861Z,101200.46
2023-04-30T22:01:38.232Z,101200.11
2023-04-30T22:04:06.568Z,101204.96
2023-04-30T22:06:35.192Z,101207.04
2023-04-30T22:09:04.719Z,101212.22
2023-04-30T22:11:33.176Z,101217.23
2023-04-30T22:14:01.345Z,101218.27
2023-04-30T22:16:29.572Z,101219.30
2023-04-30T22:18:59.033Z,101218.77
2023-04-30T22:21:27.507Z,101216.18
2023-04-30T22:23:55.879Z,101214.60
2023-04-30T22:26:25.568Z,101215.81
2023-04-30T22:28:53.757Z,101218.58
2023-04-30T22:31:22.109Z,101215.27
2023-04-30T22:33:50.310Z,101217.68
2023-04-30T22:36:18.687Z,101216.48
2023-04-30T22:38:46.758Z,101216.30
2023-04-30T22:41:15.028Z,101215.60
2023-04-30T22:43:46.780Z,101217.32
2023-04-30T22:46:15.680Z,101216.78
2023-04-30T22:48:44.577Z,101215.89
2023-04-30T22:51:12.740Z,101218.46
2023-04-30T22:53:40.814Z,101218.63
2023-04-30T22:56:09.091Z,101218.09
2023-04-30T22:58:37.465Z,101220.66
2023-04-30T23:01:05.620Z,101217.38
2023-04-30T23:03:34.107Z,101217.02
2023-04-30T23:06:02.325Z,101220.46
2023-04-30T23:08:30.665Z,101221.14
2023-04-30T23:10:58.831Z,101218.71
2023-04-30T23:13:27.006Z,101217.33
2023-04-30T23:15:58.957Z,101218.05
2023-04-30T23:18:27.443Z,101217.53
2023-04-30T23:20:59.039Z,101215.27
2023-04-30T23:23:28.396Z,101216.81
2023-04-30T23:25:56.773Z,101211.95
2023-04-30T23:28:25.154Z,101210.91
2023-04-30T23:30:54.351Z,101213.48
2023-04-30T23:33:22.420Z,101211.93
2023-04-30T23:35:53.175Z,101209.33
2023-04-30T23:38:21.733Z,101205.48
2023-04-30T23:40:50.013Z,101203.05
2023-04-30T23:43:18.180Z,101205.10
2023-04-30T23:45:46.454Z,101201.80
2023-04-30T23:48:15.781Z,101200.72
2023-04-30T23:50:43.926Z,101196.55
2023-04-30T23:53:12.711Z,101192.90
2023-04-30T23:55:41.708Z,101187.89
2023-04-30T23:58:09.875Z,101186.47
